createdAt,value
2022-09-23T00:01:22.640Z,56.80
2022-09-23T00:07:46.949Z,56.84
2022-09-23T00:14:11.272Z,56.96
2022-09-23T00:20:35.701Z,57.00
2022-09-23T00:27:00.082Z,57.01
2022-09-23T00:33:24.299Z,57.00
2022-09-23T00:39:48.636Z,57.01
2022-09-23T00:46:12.950Z,57.01
2022-09-23T00:52:40.295Z,57.09
2022-09-23T00:59:04.712Z,57.10
2022-09-23T01:05:28.935Z,57.13
2022-09-23T01:11:55.719Z,57.19
2022-09-23T01:18:21.289Z,57.27
2022-09-23T01:25:06.986Z,57.32
2022-09-23T01:31:46.528Z,57.42
2022-09-23T01:38:19.766Z,57.55
2022-09-23T01:44:46.626Z,57.59
2022-09-23T01:51:16.225Z,57.59
2022-09-23T01:57:46.119Z,57.63
2022-09-23T02:04:28.435Z,57.80
2022-09-23T02:11:01.452Z,57.87
2022-09-23T02:17:28.891Z,57.88
2022-09-23T02:23:55.899Z,57.91
2022-09-23T02:30:27.008Z,57.94
2022-09-23T02:36:54.077Z,57.98
2022-09-23T02:43:18.356Z,58.07
2022-09-23T02:49:45.241Z,58.06
2022-09-23T02:56:09.562Z,58.07
2022-09-23T03:02:38.214Z,58.11
2022-09-23T03:09:11.143Z,58.11
2022-09-23T03:15:50.344Z,58.20
2022-09-23T03:22:17.162Z,58.20
2022-09-23T03:28:41.449Z,58.15
2022-09-23T03:35:05.945Z,58.26
2022-09-23T03:41:33.012Z,58.19
2022-09-23T03:48:00.063Z,58.21
2022-09-23T03:54:24.367Z,58.25
2022-09-23T04:00:48.840Z,58.26
2022-09-23T04:07:13.291Z,58.24
2022-09-23T04:13:37.612Z,58.24
2022-09-23T04:20:01.919Z,58.26
2022-09-23T04:26:28.748Z,58.35
2022-09-23T04:32:52.988Z,58.29
2022-09-23T04:39:17.322Z,58.30
2022-09-23T04:45:33.736Z,58.16
2022-09-23T04:52:13.216Z,58.01
2022-09-23T04:58:37.499Z,57.80
2022-09-23T05:05:01.823Z,57.60
2022-09-23T05:11:25.772Z,57.37
2022-09-23T05:17:50.057Z,57.13
2022-09-23T05:24:14.312Z,56.90
2022-09-23T05:30:38.638Z,56.71
2022-09-23T05:37:03.108Z,56.53
2022-09-23T05:43:27.813Z,56.37
2022-09-23T05:50:00.488Z,56.26
2022-09-23T05:56:25.120Z,56.31
2022-09-23T06:02:49.348Z,56.29
2022-09-23T06:09:13.625Z,56.16
2022-09-23T06:15:37.853Z,56.03
2022-09-23T06:22:02.275Z,55.91
2022-09-23T06:28:35.347Z,56.06
2022-09-23T06:34:59.580Z,56.21
2022-09-23T06:41:23.777Z,56.48
2022-09-23T06:47:47.971Z,56.71
2022-09-23T06:54:12.272Z,56.87
2022-09-23T07:00:36.481Z,56.94
2022-09-23T07:07:00.722Z,57.02
2022-09-23T07:13:25.050Z,57.02
2022-09-23T07:19:49.361Z,57.06
2022-09-23T07:26:13.735Z,57.06
2022-09-23T07:32:47.245Z,56.86
2022-09-23T07:39:12.768Z,56.56
2022-09-23T07:45:37.113Z,56.29
2022-09-23T07:52:04.583Z,55.85
2022-09-23T07:58:28.847Z,55.51
2022-09-23T08:04:53.152Z,54.63
2022-09-23T08:11:17.477Z,54.56
2022-09-23T08:17:41.753Z,55.80
2022-09-23T08:24:06.114Z,55.96
2022-09-23T08:30:30.831Z,55.90
2022-09-23T08:36:55.097Z,55.70
2022-09-23T08:43:19.304Z,55.44
2022-09-23T08:49:46.429Z,55.21
2022-09-23T08:55:51.189Z,54.98
2022-09-23T09:02:33.554Z,55.07
2022-09-23T09:08:57.888Z,53.12
2022-09-23T09:15:31.310Z,53.69
2022-09-23T09:22:07.820Z,53.73
2022-09-23T09:28:32.554Z,53.67
2022-09-23T09:35:05.803Z,53.55
2022-09-23T09:41:29.991Z,53.44
2022-09-23T09:47:55.962Z,53.34
2022-09-23T09:54:20.202Z,53.26
2022-09-23T10:01:02.488Z,53.21
2022-09-23T10:07:26.819Z,53.17
2022-09-23T10:13:56.951Z,53.05
2022-09-23T10:20:27.338Z,52.93
2022-09-23T10:27:06.479Z,52.84
2022-09-23T10:33:36.740Z,52.53
2022-09-23T10:39:59.306Z,51.05
2022-09-23T10:46:27.857Z,50.23
2022-09-23T10:53:07.091Z,48.57
2022-09-23T10:59:40.311Z,47.76
2022-09-23T11:06:06.153Z,46.62
2022-09-23T11:12:31.876Z,45.57
2022-09-23T11:19:20.503Z,45.25
2022-09-23T11:25:46.130Z,45.06
2022-09-23T11:32:13.313Z,44.53
2022-09-23T11:38:52.898Z,43.77
2022-09-23T11:45:25.010Z,43.27
2022-09-23T11:51:51.955Z,42.56
2022-09-23T11:58:24.337Z,41.48
2022-09-23T12:04:57.323Z,40.85
2022-09-23T12:11:21.347Z,40.66
2022-09-23T12:17:51.379Z,40.42
2022-09-23T12:24:27.899Z,40.31
2022-09-23T12:31:01.572Z,40.01
2022-09-23T12:37:25.948Z,40.36
2022-09-23T12:43:58.995Z,40.27
2022-09-23T12:50:26.133Z,40.09
2022-09-23T12:56:59.667Z,39.57
2022-09-23T13:03:28.397Z,39.19
2022-09-23T13:09:58.585Z,39.09
2022-09-23T13:16:28.915Z,38.35
2022-09-23T13:22:59.484Z,37.11
2022-09-23T13:29:35.969Z,36.04
2022-09-23T13:36:12.205Z,35.79
2022-09-23T13:42:36.589Z,36.17
2022-09-23T13:49:07.047Z,36.71
2022-09-23T13:55:32.241Z,35.51
2022-09-23T14:02:02.768Z,35.13
2022-09-23T14:08:27.039Z,34.69
2022-09-23T14:14:54.013Z,34.51
2022-09-23T14:21:27.151Z,34.80
2022-09-23T14:27:58.499Z,35.68
2022-09-23T14:34:24.650Z,36.09
2022-09-23T14:40:49.418Z,36.81
2022-09-23T14:47:13.878Z,37.60
2022-09-23T14:53:44.033Z,38.38
2022-09-23T15:00:14.099Z,38.95
2022-09-23T15:06:44.228Z,39.58
2022-09-23T15:13:14.491Z,40.26
2022-09-23T15:19:47.286Z,40.81
2022-09-23T15:26:20.623Z,41.27
2022-09-23T15:32:44.901Z,41.59
2022-09-23T15:39:09.223Z,42.00
2022-09-23T15:45:33.603Z,42.50
2022-09-23T15:51:57.938Z,42.81
2022-09-23T15:58:22.136Z,43.20
2022-09-23T16:04:46.455Z,43.53
2022-09-23T16:11:10.801Z,43.83
2022-09-23T16:17:35.016Z,44.11
2022-09-23T16:23:56.065Z,44.59
2022-09-23T16:30:21.008Z,45.03
2022-09-23T16:36:48.345Z,45.57
2022-09-23T16:43:12.730Z,45.92
2022-09-23T16:49:37.039Z,46.32
2022-09-23T16:56:01.383Z,46.61
2022-09-23T17:02:24.300Z,46.89
2022-09-23T17:08:48.741Z,47.16
2022-09-23T17:15:12.768Z,47.28
2022-09-23T17:21:37.061Z,47.36
2022-09-23T17:28:01.272Z,47.48
2022-09-23T17:34:25.914Z,47.46
2022-09-23T17:40:50.380Z,47.44
2022-09-23T17:47:14.849Z,47.30
2022-09-23T17:53:39.122Z,47.17
2022-09-23T18:00:03.807Z,47.06
2022-09-23T18:06:28.081Z,46.89
2022-09-23T18:12:52.310Z,46.80
2022-09-23T18:19:16.583Z,46.94
2022-09-23T18:25:40.930Z,47.13
2022-09-23T18:32:05.275Z,47.29
2022-09-23T18:38:29.596Z,47.45
2022-09-23T18:44:54.065Z,47.58
2022-09-23T18:51:18.308Z,47.77
2022-09-23T18:57:42.658Z,48.00
2022-09-23T19:04:06.972Z,48.08
2022-09-23T19:10:31.336Z,48.18
2022-09-23T19:16:55.562Z,48.29
2022-09-23T19:23:20.216Z,48.39
2022-09-23T19:29:50.357Z,48.46
2022-09-23T19:36:14.669Z,48.55
2022-09-23T19:42:39.021Z,48.66
2022-09-23T19:49:03.280Z,48.76
2022-09-23T19:55:27.710Z,48.90
2022-09-23T20:01:52.082Z,49.01
2022-09-23T20:08:16.422Z,49.10
2022-09-23T20:14:40.640Z,49.18
2022-09-23T20:21:05.479Z,49.26
2022-09-23T20:27:29.762Z,49.37
2022-09-23T20:33:46.767Z,49.47
2022-09-23T20:40:11.070Z,49.56
2022-09-23T20:46:38.230Z,49.60
2022-09-23T20:53:02.601Z,49.62
2022-09-23T20:59:26.889Z,49.72
2022-09-23T21:05:51.864Z,49.88
2022-09-23T21:12:16.150Z,49.87
2022-09-23T21:18:40.319Z,49.96
2022-09-23T21:25:26.982Z,50.10
2022-09-23T21:31:48.987Z,50.26
2022-09-23T21:38:13.352Z,50.41
2022-09-23T21:44:38.006Z,50.58
2022-09-23T21:51:02.234Z,50.71
2022-09-23T21:57:26.704Z,50.82
2022-09-23T22:03:52.045Z,50.92
2022-09-23T22:10:16.370Z,50.99
2022-09-23T22:16:40.725Z,51.08
2022-09-23T22:23:08.266Z,51.15
2022-09-23T22:29:31.203Z,51.23
2022-09-23T22:35:55.534Z,51.29
2022-09-23T22:42:18.775Z,51.35
2022-09-23T22:48:43.128Z,51.43
2022-09-23T22:55:09.986Z,51.49
2022-09-23T23:01:36.997Z,51.60
2022-09-23T23:08:01.316Z,51.64
2022-09-23T23:14:25.594Z,51.73
2022-09-23T23:20:42.451Z,51.79
2022-09-23T23:27:09.497Z,51.81
2022-09-23T23:33:33.722Z,51.84
2022-09-23T23:39:58.046Z,51.88
2022-09-23T23:46:22.358Z,51.95
2022-09-23T23:52:46.626Z,52.01
2022-09-23T23:59:10.886Z,52.02
